Portada
METAR-TAF:

METAR-TAF

Aeroports :

Monte Terminillo, Itàlia

latitud: 42-28N, longitud: 012-59E, altitud: 1874 m

Observació

L'informe es va fer fa 39 minuts, a les 23:55 UTC
Vent 5 kt del Est/Sud-Est
Temperatura 18°C
Humitat 56%
Pressió 1028 hPa

METAR: LIRK 182355Z AUTO 12005KT //// 18/09 Q1028

Hora: 02:34 (00:34 UTC)


TAF: manca

Observacions i pronòstics meteorològics de més de 4000 aeroports (METAR i TAF).

Les estacions disponibles són els punts grocs i vermells al mapa.

Posi el ratolí al punt desitjat per veure el nom de l'estació.

Feu clic per veure les observacions i els pronòstics meteorològics.

Per canviar el mapa: feu clic els botons verds amb una creu de color negre per apropar; al botó verd amb un guió per allunyar la imatge; o en les fletxes verdes per a mapes adjacents.


METAR-TAF: